Weather at Glasgow International Airport

Public forecast

Using degrees Celsius for public forecast. Weather courtesy of forecast.io.

Current aviation weather report (METAR) for Glasgow International Airport

Retrieved 2022/01/16 18:20 UTC (12 minutes ago):

EGPF 161820Z AUTO 26013KT 9999 BKN027 07/02 Q1029

Aviation forecast (TAF) for Glasgow International Airport

Retrieved 2022/01/16 18:00 UTC (32 minutes ago):

TAF EGPF 161701Z 1618/1718 25010KT 9999 SCT030 PROB30 TEMPO 1704/1709 BKN014 BECMG 1715/1718 VRB03KT PROB30 TEMPO 1715/1718 7000